createdAt,value
2023-03-17T16:56:27.419Z,102091.11
2023-03-17T16:58:55.313Z,102095.80
2023-03-17T17:01:26.293Z,102102.27
2023-03-17T17:03:53.669Z,102103.30
2023-03-17T17:06:22.864Z,102104.71
2023-03-17T17:08:51.560Z,102100.17
2023-03-17T17:11:20.320Z,102095.98
2023-03-17T17:13:49.053Z,102095.12
2023-03-17T17:16:22.060Z,102097.55
2023-03-17T17:18:49.696Z,102097.20
2023-03-17T17:21:16.947Z,102094.77
2023-03-17T17:23:44.124Z,102095.80
2023-03-17T17:26:11.473Z,102090.92
2023-03-17T17:28:40.354Z,102093.02
2023-03-17T17:31:09.663Z,102091.45
2023-03-17T17:33:38.053Z,102087.97
2023-03-17T17:36:08.215Z,102089.88
2023-03-17T17:38:35.228Z,102092.14
2023-03-17T17:41:03.408Z,102095.63
2023-03-17T17:43:30.578Z,102097.03
2023-03-17T17:45:57.589Z,102106.09
2023-03-17T17:48:27.200Z,102110.10
2023-03-17T17:50:55.999Z,102118.30
2023-03-17T17:53:24.501Z,102123.35
2023-03-17T17:55:52.448Z,102127.88
2023-03-17T17:58:23.117Z,102130.84
2023-03-17T18:00:50.934Z,102137.80
2023-03-17T18:03:22.380Z,102140.24
2023-03-17T18:05:53.442Z,102144.77
2023-03-17T18:08:20.926Z,102147.05
2023-03-17T18:10:49.663Z,102147.92
2023-03-17T18:13:17.679Z,102148.80
2023-03-17T18:15:45.056Z,102146.36
2023-03-17T18:18:12.145Z,102150.54
2023-03-17T18:20:39.570Z,102151.23
2023-03-17T18:23:06.993Z,102150.89
2023-03-17T18:25:34.399Z,102149.84
2023-03-17T18:28:01.669Z,102144.79
2023-03-17T18:30:31.147Z,102144.96
2023-03-17T18:33:11.276Z,102145.83
2023-03-17T18:35:38.630Z,102139.73
2023-03-17T18:38:08.421Z,102139.03
2023-03-17T18:40:36.480Z,102136.59
2023-03-17T18:43:04.374Z,102132.94
2023-03-17T18:45:31.878Z,102134.52
2023-03-17T18:47:58.931Z,102131.36
2023-03-17T18:50:26.666Z,102131.02
2023-03-17T18:52:54.107Z,102128.23
2023-03-17T18:55:21.382Z,102120.04
2023-03-17T18:57:48.440Z,102117.77
2023-03-17T19:00:17.636Z,102123.52
2023-03-17T19:02:44.841Z,102119.86
2023-03-17T19:05:12.901Z,102114.80
2023-03-17T19:07:40.839Z,102115.50
2023-03-17T19:10:10.451Z,102111.50
2023-03-17T19:12:37.804Z,102112.19
2023-03-17T19:15:06.669Z,102105.40
2023-03-17T19:17:34.317Z,102098.95
2023-03-17T19:20:01.824Z,102092.32
2023-03-17T19:22:28.827Z,102084.14
2023-03-17T19:24:55.875Z,102083.79
2023-03-17T19:27:23.505Z,102080.83
2023-03-17T19:29:50.516Z,102075.60
2023-03-17T19:32:18.430Z,102072.81
2023-03-17T19:34:47.873Z,102070.20
2023-03-17T19:37:16.432Z,102072.46
2023-03-17T19:39:47.101Z,102067.93
2023-03-17T19:42:14.333Z,102064.96
2023-03-17T19:44:41.408Z,102068.27
2023-03-17T19:47:09.397Z,102068.46
2023-03-17T19:49:38.202Z,102067.40
2023-03-17T19:52:06.771Z,102073.15
2023-03-17T19:54:38.258Z,102070.73
2023-03-17T19:57:05.381Z,102063.58
2023-03-17T19:59:32.850Z,102061.83
2023-03-17T20:02:00.136Z,102062.89
2023-03-17T20:04:28.107Z,102060.09
2023-03-17T20:06:57.037Z,102063.40
2023-03-17T20:09:26.337Z,102067.92
2023-03-17T20:11:54.756Z,102065.48
2023-03-17T20:14:22.160Z,102066.71
2023-03-17T20:16:49.303Z,102064.27
2023-03-17T20:19:16.853Z,102063.73
2023-03-17T20:21:44.597Z,102059.04
2023-03-17T20:24:12.996Z,102062.17
2023-03-17T20:26:41.105Z,102059.91
2023-03-17T20:29:09.342Z,102056.95
2023-03-17T20:31:37.652Z,102056.95
2023-03-17T20:34:05.241Z,102052.44
2023-03-17T20:36:32.167Z,102051.73
2023-03-17T20:38:59.726Z,102047.19
2023-03-17T20:41:27.841Z,102041.44
2023-03-17T20:43:54.820Z,102039.71
2023-03-17T20:46:23.925Z,102040.41
2023-03-17T20:48:58.702Z,102039.71
2023-03-17T20:51:27.296Z,102042.48
2023-03-17T20:53:55.335Z,102039.01
2023-03-17T20:56:26.704Z,102036.74
2023-03-17T20:58:56.337Z,102041.11
2023-03-17T21:01:24.391Z,102042.15
2023-03-17T21:03:52.651Z,102034.31
2023-03-17T21:06:20.987Z,102035.02
2023-03-17T21:08:48.734Z,102037.63
2023-03-17T21:11:23.745Z,102039.02
2023-03-17T21:13:50.958Z,102040.05
2023-03-17T21:16:24.935Z,102040.94
2023-03-17T21:18:52.886Z,102040.40
2023-03-17T21:21:21.896Z,102037.44
2023-03-17T21:23:50.492Z,102032.91
2023-03-17T21:26:19.129Z,102028.21
2023-03-17T21:28:47.855Z,102024.04
2023-03-17T21:31:17.337Z,102023.52
2023-03-17T21:33:45.582Z,102025.77
2023-03-17T21:36:13.614Z,102023.50
2023-03-17T21:38:40.772Z,102025.08
2023-03-17T21:41:23.542Z,102022.64
2023-03-17T21:43:50.632Z,102029.43
2023-03-17T21:46:18.479Z,102034.48
2023-03-17T21:48:46.689Z,102033.61
2023-03-17T21:51:14.709Z,102027.69
2023-03-17T21:53:42.229Z,102026.99
2023-03-17T21:56:12.573Z,102023.68
2023-03-17T21:58:41.205Z,102025.42
2023-03-17T22:01:09.878Z,102025.23
2023-03-17T22:03:39.644Z,102022.46
2023-03-17T22:06:07.436Z,102017.77
2023-03-17T22:08:35.088Z,102021.08
2023-03-17T22:11:22.934Z,102015.15
2023-03-17T22:13:50.620Z,102008.89
2023-03-17T22:16:19.192Z,102009.23
2023-03-17T22:18:47.625Z,102006.09
2023-03-17T22:21:15.948Z,102013.23
2023-03-17T22:23:44.656Z,102017.06
2023-03-17T22:26:14.140Z,102020.38
2023-03-17T22:28:43.213Z,102018.45
2023-03-17T22:31:27.824Z,102013.93
2023-03-17T22:33:59.344Z,102015.15
2023-03-17T22:36:27.305Z,102013.41
2023-03-17T22:38:55.615Z,102015.31
2023-03-17T22:41:25.328Z,102013.58
2023-03-17T22:43:52.190Z,102009.05
2023-03-17T22:46:20.805Z,102006.09
2023-03-17T22:48:49.041Z,102006.62
2023-03-17T22:51:21.731Z,102005.57
2023-03-17T22:53:50.264Z,102007.48
2023-03-17T22:56:18.733Z,102010.09
2023-03-17T22:58:47.687Z,102008.01
2023-03-17T23:01:17.490Z,102009.75
2023-03-17T23:03:46.131Z,102007.14
2023-03-17T23:06:14.736Z,102003.83
2023-03-17T23:08:43.669Z,102005.04
2023-03-17T23:11:18.342Z,102007.12
2023-03-17T23:13:47.520Z,102001.91
2023-03-17T23:16:15.837Z,101999.11
2023-03-17T23:18:46.542Z,102003.48
2023-03-17T23:21:37.824Z,102000.70
2023-03-17T23:24:08.039Z,101999.30
2023-03-17T23:26:37.288Z,102003.30
2023-03-17T23:29:07.475Z,102003.30
2023-03-17T23:31:37.212Z,101996.86
2023-03-17T23:34:06.758Z,101994.94
2023-03-17T23:36:35.480Z,101988.48
2023-03-17T23:39:02.677Z,101991.10
2023-03-17T23:41:29.883Z,101997.03
2023-03-17T23:43:56.936Z,101997.91
2023-03-17T23:46:26.106Z,101999.12
2023-03-17T23:48:53.179Z,101998.60
2023-03-17T23:51:20.192Z,101992.86
2023-03-17T23:53:48.163Z,101995.98
2023-03-17T23:56:15.378Z,101991.45
2023-03-17T23:58:43.541Z,101991.80
